createdAt,value
2023-01-13T00:00:16.133Z,20.25
2023-01-13T00:02:42.886Z,14.98
2023-01-13T00:05:12.401Z,17.05
2023-01-13T00:07:42.839Z,17.52
2023-01-13T00:10:13.016Z,20.48
2023-01-13T00:12:48.643Z,20.10
2023-01-13T00:15:15.658Z,15.00
2023-01-13T00:17:44.643Z,15.00
2023-01-13T00:20:11.669Z,15.77
2023-01-13T00:22:38.289Z,18.52
2023-01-13T00:25:05.635Z,16.38
2023-01-13T00:27:33.267Z,17.77
2023-01-13T00:29:59.864Z,15.75
2023-01-13T00:32:27.305Z,15.85
2023-01-13T00:34:54.434Z,14.55
2023-01-13T00:37:21.273Z,15.60
2023-01-13T00:39:52.247Z,15.18
2023-01-13T00:42:22.589Z,18.00
2023-01-13T00:44:49.865Z,14.25
2023-01-13T00:47:16.597Z,18.27
2023-01-13T00:49:52.702Z,16.48
2023-01-13T00:52:21.986Z,14.65
2023-01-13T00:54:57.389Z,17.92
2023-01-13T00:57:30.759Z,17.00
2023-01-13T00:59:57.396Z,12.50
2023-01-13T01:02:24.101Z,12.13
2023-01-13T01:04:50.755Z,15.98
2023-01-13T01:07:17.394Z,14.23
2023-01-13T01:09:47.075Z,16.55
2023-01-13T01:12:15.703Z,15.20
2023-01-13T01:14:42.329Z,15.90
2023-01-13T01:17:11.730Z,12.70
2023-01-13T01:19:40.125Z,14.55
2023-01-13T01:22:07.776Z,16.25
2023-01-13T01:24:34.990Z,16.70
2023-01-13T01:27:01.649Z,15.25
2023-01-13T01:29:31.073Z,18.27
2023-01-13T01:31:58.382Z,16.65
2023-01-13T01:34:24.963Z,15.68
2023-01-13T01:36:51.575Z,18.77
2023-01-13T01:39:18.172Z,16.25
2023-01-13T01:41:44.768Z,18.92
2023-01-13T01:44:42.262Z,15.88
2023-01-13T01:47:11.818Z,16.38
2023-01-13T01:49:45.880Z,21.30
2023-01-13T01:52:19.507Z,22.98
2023-01-13T01:55:03.888Z,14.18
2023-01-13T01:57:39.540Z,19.50
2023-01-13T02:00:09.384Z,14.40
2023-01-13T02:02:39.712Z,17.15
2023-01-13T02:05:09.036Z,17.37
2023-01-13T02:07:39.152Z,28.15
2023-01-13T02:10:09.192Z,18.33
2023-01-13T02:12:36.679Z,17.95
2023-01-13T02:15:05.569Z,17.00
2023-01-13T02:17:38.292Z,16.15
2023-01-13T02:20:23.293Z,21.85
2023-01-13T02:22:58.714Z,15.38
2023-01-13T02:25:53.078Z,15.25
2023-01-13T02:28:40.551Z,15.15
2023-01-13T02:31:10.510Z,15.20
2023-01-13T02:34:09.648Z,16.50
2023-01-13T02:36:49.058Z,14.50
2023-01-13T02:39:48.992Z,11.70
2023-01-13T02:42:27.819Z,17.25
2023-01-13T02:45:07.723Z,15.27
2023-01-13T02:47:37.992Z,14.30
2023-01-13T02:50:13.029Z,15.52
2023-01-13T02:52:44.560Z,15.68
2023-01-13T02:55:19.892Z,17.23
2023-01-13T02:57:48.392Z,16.27
2023-01-13T03:00:17.059Z,15.20
2023-01-13T03:02:45.469Z,18.00
2023-01-13T03:05:16.381Z,17.17
2023-01-13T03:08:03.496Z,20.83
2023-01-13T03:10:33.257Z,14.55
2023-01-13T03:13:44.721Z,20.50
2023-01-13T03:16:42.324Z,12.15
2023-01-13T03:19:41.367Z,18.58
2023-01-13T03:22:31.572Z,18.95
2023-01-13T03:25:20.841Z,21.02
2023-01-13T03:28:00.582Z,15.23
2023-01-13T03:30:33.033Z,16.00
2023-01-13T03:33:14.609Z,13.73
2023-01-13T03:35:45.961Z,14.55
2023-01-13T03:38:19.522Z,12.93
2023-01-13T03:40:54.497Z,14.48
2023-01-13T03:43:57.912Z,15.15
2023-01-13T03:46:36.298Z,14.73
2023-01-13T03:49:10.678Z,14.15
2023-01-13T03:51:43.628Z,15.80
2023-01-13T03:56:54.735Z,13.35
2023-01-13T03:59:30.115Z,13.68
2023-01-13T04:02:23.930Z,14.60
2023-01-13T04:04:59.715Z,14.85
2023-01-13T04:07:41.583Z,14.93
2023-01-13T04:10:14.726Z,14.27
2023-01-13T04:13:13.446Z,16.27
2023-01-13T04:15:49.951Z,11.32
2023-01-13T04:18:26.007Z,11.63
2023-01-13T04:21:00.544Z,12.38
2023-01-13T04:23:33.697Z,9.68
2023-01-13T04:26:06.116Z,17.38
2023-01-13T04:28:36.751Z,11.40
2023-01-13T04:31:07.146Z,13.87
2023-01-13T04:33:34.351Z,12.35
2023-01-13T04:36:06.173Z,14.85
2023-01-13T04:38:38.633Z,10.57
2023-01-13T04:41:12.755Z,13.23
2023-01-13T04:43:43.555Z,10.63
2023-01-13T04:46:20.322Z,14.57
2023-01-13T04:48:55.921Z,14.07
2023-01-13T04:51:22.509Z,13.65
2023-01-13T04:53:51.657Z,15.48
2023-01-13T04:56:19.363Z,14.55
2023-01-13T04:58:45.965Z,13.15
2023-01-13T05:01:17.752Z,16.10
2023-01-13T05:06:15.501Z,13.02
2023-01-13T05:08:45.543Z,14.75
2023-01-13T05:11:12.127Z,17.98
2023-01-13T05:13:41.789Z,13.98
2023-01-13T05:16:11.419Z,15.40
2023-01-13T05:18:40.273Z,11.80
2023-01-13T05:21:13.684Z,12.27
2023-01-13T05:23:40.282Z,17.00
2023-01-13T05:26:09.886Z,13.43
2023-01-13T05:28:40.288Z,22.40
2023-01-13T05:31:07.284Z,17.60
2023-01-13T05:33:39.869Z,18.83
2023-01-13T05:36:06.805Z,22.27
2023-01-13T05:38:36.996Z,22.73
2023-01-13T05:41:08.172Z,24.23
2023-01-13T05:43:41.502Z,19.30
2023-01-13T05:46:13.813Z,22.45
2023-01-13T05:48:43.288Z,19.20
2023-01-13T05:51:11.948Z,19.83
2023-01-13T05:53:39.111Z,14.65
2023-01-13T05:56:10.811Z,16.83
2023-01-13T05:58:38.292Z,19.05
2023-01-13T06:01:12.319Z,19.10
2023-01-13T06:03:51.865Z,21.13
2023-01-13T06:06:18.726Z,23.25
2023-01-13T06:08:46.835Z,24.70
2023-01-13T06:11:19.168Z,20.50
2023-01-13T06:13:52.309Z,25.45
2023-01-13T06:16:18.966Z,23.65
2023-01-13T06:18:49.881Z,21.10
2023-01-13T06:21:16.550Z,20.08
2023-01-13T06:23:46.388Z,28.90
2023-01-13T06:26:24.899Z,21.08
2023-01-13T06:28:51.565Z,25.77
2023-01-13T06:31:19.183Z,26.35
2023-01-13T06:33:50.747Z,21.98
2023-01-13T06:36:30.944Z,25.05
2023-01-13T06:38:59.972Z,28.80
2023-01-13T06:41:31.249Z,29.45
2023-01-13T06:43:57.819Z,32.47
2023-01-13T06:46:25.587Z,26.48
2023-01-13T06:48:52.122Z,25.45
2023-01-13T06:51:18.707Z,26.83
2023-01-13T06:53:45.289Z,31.98
2023-01-13T06:56:11.877Z,31.15
2023-01-13T06:58:38.458Z,34.60
2023-01-13T07:01:05.146Z,32.60
2023-01-13T07:03:31.775Z,33.00
2023-01-13T07:05:58.303Z,35.83
2023-01-13T07:08:27.556Z,30.88
2023-01-13T07:10:54.540Z,37.00
2023-01-13T07:13:24.769Z,32.38
2023-01-13T07:16:03.506Z,31.85
2023-01-13T07:18:31.897Z,30.40
2023-01-13T07:21:06.742Z,35.80
2023-01-13T07:23:40.554Z,33.25
2023-01-13T07:26:09.498Z,37.30
2023-01-13T07:28:36.776Z,34.30
2023-01-13T07:31:03.815Z,34.75
2023-01-13T07:33:30.472Z,31.80
2023-01-13T07:35:58.695Z,38.70
2023-01-13T07:38:25.632Z,35.35
2023-01-13T07:40:52.240Z,38.80
2023-01-13T07:43:18.860Z,37.60
2023-01-13T07:45:45.565Z,40.88
2023-01-13T07:48:20.976Z,35.55
2023-01-13T07:50:47.542Z,42.63
2023-01-13T07:53:14.139Z,37.28
2023-01-13T07:55:44.077Z,34.67
2023-01-13T07:58:11.280Z,33.13
2023-01-13T08:00:38.796Z,35.28
2023-01-13T08:03:05.446Z,34.65
2023-01-13T08:05:42.945Z,35.97
2023-01-13T08:08:12.873Z,37.78
2023-01-13T08:10:45.497Z,24.83
2023-01-13T08:13:14.873Z,33.85
2023-01-13T08:15:42.568Z,33.88
2023-01-13T08:18:09.209Z,42.28
2023-01-13T08:20:35.808Z,43.53
2023-01-13T08:23:02.456Z,34.00
2023-01-13T08:25:33.610Z,36.42
2023-01-13T08:28:00.179Z,35.83
2023-01-13T08:30:30.466Z,41.72
2023-01-13T08:32:57.092Z,35.38
2023-01-13T08:35:24.019Z,33.13
2023-01-13T08:37:51.561Z,41.60
2023-01-13T08:40:23.336Z,33.58
2023-01-13T08:42:49.906Z,30.90
2023-01-13T08:45:16.628Z,36.58
2023-01-13T08:47:43.184Z,30.27
2023-01-13T08:50:10.464Z,37.75
2023-01-13T08:52:37.536Z,33.58
2023-01-13T08:55:04.512Z,33.10
2023-01-13T08:57:31.147Z,37.30
2023-01-13T08:59:57.791Z,37.42
2023-01-13T09:02:26.072Z,32.70
2023-01-13T09:04:53.798Z,40.90
2023-01-13T09:07:21.402Z,31.33
2023-01-13T09:09:47.948Z,39.92
2023-01-13T09:12:16.224Z,36.88
2023-01-13T09:14:42.819Z,36.55
2023-01-13T09:17:09.398Z,35.60
2023-01-13T09:19:36.143Z,39.25
2023-01-13T09:22:03.052Z,34.33
2023-01-13T09:24:30.139Z,38.28
2023-01-13T09:26:56.722Z,37.83
2023-01-13T09:29:23.456Z,38.25
2023-01-13T09:31:50.076Z,33.05
2023-01-13T09:34:20.681Z,42.97
2023-01-13T09:36:47.309Z,40.20
2023-01-13T09:39:14.279Z,51.05
2023-01-13T09:41:53.504Z,55.83
2023-01-13T09:44:27.907Z,43.28
2023-01-13T09:47:02.717Z,44.55
2023-01-13T09:49:37.424Z,40.58
2023-01-13T09:52:14.682Z,46.22
2023-01-13T09:54:43.876Z,41.92
2023-01-13T09:57:13.297Z,41.85
2023-01-13T09:59:40.343Z,28.85
2023-01-13T10:02:31.920Z,30.67
2023-01-13T10:05:36.376Z,35.03
2023-01-13T10:08:10.371Z,37.88
2023-01-13T10:10:47.128Z,40.05
2023-01-13T10:13:21.891Z,44.60
2023-01-13T10:16:13.070Z,37.83
2023-01-13T10:19:01.111Z,38.58
2023-01-13T10:21:55.540Z,45.17
2023-01-13T10:24:38.627Z,40.30
2023-01-13T10:27:18.845Z,45.88
2023-01-13T10:29:55.592Z,53.10
2023-01-13T10:32:30.627Z,45.90
2023-01-13T10:34:58.157Z,39.00
2023-01-13T10:37:31.633Z,36.85
2023-01-13T10:40:01.970Z,40.75
2023-01-13T10:42:30.030Z,41.00
2023-01-13T10:45:00.439Z,40.78
2023-01-13T10:47:28.751Z,39.58
2023-01-13T10:50:13.451Z,31.38
2023-01-13T10:53:01.521Z,34.88
2023-01-13T10:55:32.797Z,34.35
2023-01-13T10:58:27.802Z,32.75
2023-01-13T11:01:21.037Z,39.05
2023-01-13T11:03:56.712Z,42.03
2023-01-13T11:06:37.651Z,36.53
2023-01-13T11:09:19.816Z,39.40
2023-01-13T11:11:54.255Z,37.80
2023-01-13T11:14:54.453Z,38.50
2023-01-13T11:17:29.709Z,34.70
2023-01-13T11:20:11.245Z,35.58
2023-01-13T11:22:51.433Z,38.38
2023-01-13T11:28:37.640Z,44.17
2023-01-13T11:31:23.559Z,36.85
2023-01-13T11:34:01.215Z,31.08
2023-01-13T11:36:51.380Z,39.53
2023-01-13T11:39:50.276Z,38.38
2023-01-13T11:42:36.732Z,35.72
2023-01-13T11:45:15.223Z,31.55
2023-01-13T11:47:41.773Z,38.25
2023-01-13T11:50:47.652Z,30.67
2023-01-13T11:53:41.920Z,37.70
2023-01-13T11:56:29.153Z,37.65
2023-01-13T11:59:44.324Z,38.03
2023-01-13T12:02:38.277Z,43.35
2023-01-13T12:05:21.417Z,37.03
2023-01-13T12:08:04.579Z,33.67
2023-01-13T12:10:49.157Z,30.25
2023-01-13T12:13:35.213Z,44.05
2023-01-13T12:16:26.058Z,36.75
2023-01-13T12:19:29.561Z,39.83
2023-01-13T12:22:32.609Z,29.50
2023-01-13T12:25:18.760Z,38.40
2023-01-13T12:27:59.506Z,39.13
2023-01-13T12:30:34.299Z,40.88
2023-01-13T12:33:19.843Z,41.70
2023-01-13T12:36:25.025Z,42.00
2023-01-13T12:39:14.885Z,45.03
2023-01-13T12:42:15.057Z,41.47
2023-01-13T12:45:11.404Z,44.05
2023-01-13T12:47:43.912Z,40.28
2023-01-13T12:50:22.310Z,40.63
2023-01-13T12:52:53.492Z,38.67
2023-01-13T12:55:30.169Z,44.00
2023-01-13T12:58:10.479Z,38.00
2023-01-13T13:00:44.905Z,41.85
2023-01-13T13:03:12.473Z,33.70
2023-01-13T13:05:57.183Z,34.35
2023-01-13T13:08:48.807Z,42.22
2023-01-13T13:11:46.888Z,46.08
2023-01-13T13:14:14.367Z,45.00
2023-01-13T13:16:51.313Z,43.72
2023-01-13T13:19:17.855Z,44.00
2023-01-13T13:22:12.166Z,48.17
2023-01-13T13:24:43.159Z,38.88
2023-01-13T13:27:39.784Z,46.47
2023-01-13T13:30:24.521Z,43.72
2023-01-13T13:33:15.893Z,34.08
2023-01-13T13:36:40.034Z,38.90
2023-01-13T13:39:30.292Z,37.75
2023-01-13T13:42:10.953Z,36.40
2023-01-13T13:44:40.762Z,38.25
2023-01-13T13:47:08.142Z,34.33
2023-01-13T13:49:53.373Z,34.90
2023-01-13T13:52:35.050Z,39.13
2023-01-13T13:55:20.958Z,44.33
2023-01-13T13:57:51.564Z,40.10
2023-01-13T14:00:21.071Z,36.17
2023-01-13T14:02:58.599Z,33.42
2023-01-13T14:05:32.141Z,38.92
2023-01-13T14:08:21.241Z,41.88
2023-01-13T14:10:52.109Z,37.35
2023-01-13T14:13:21.978Z,46.05
2023-01-13T14:16:06.803Z,44.30
2023-01-13T14:18:42.450Z,47.30
2023-01-13T14:21:28.278Z,48.15
2023-01-13T14:24:10.713Z,45.83
2023-01-13T14:26:40.318Z,45.03
2023-01-13T14:29:18.139Z,47.50
2023-01-13T14:31:49.165Z,42.78
2023-01-13T14:34:31.001Z,43.70
2023-01-13T14:37:09.521Z,39.53
2023-01-13T14:39:42.542Z,45.70
2023-01-13T14:42:13.629Z,39.05
2023-01-13T14:44:54.399Z,42.30
2023-01-13T14:50:30.238Z,43.78
2023-01-13T14:52:58.544Z,39.70
2023-01-13T14:55:38.537Z,42.95
2023-01-13T14:58:25.086Z,43.08
2023-01-13T15:01:15.067Z,47.28
2023-01-13T15:03:46.092Z,47.78
2023-01-13T15:06:29.019Z,42.08
2023-01-13T15:08:55.853Z,42.72
2023-01-13T15:11:33.560Z,40.58
2023-01-13T15:14:01.673Z,41.15
2023-01-13T15:16:29.000Z,40.33
2023-01-13T15:18:58.754Z,42.85
2023-01-13T15:21:25.358Z,43.38
2023-01-13T15:23:57.723Z,45.20
2023-01-13T15:26:32.706Z,45.90
2023-01-13T15:29:03.801Z,46.47
2023-01-13T15:31:35.166Z,45.95
2023-01-13T15:34:01.722Z,47.40
2023-01-13T15:36:35.116Z,38.17
2023-01-13T15:39:07.728Z,46.20
2023-01-13T15:41:35.187Z,46.85
2023-01-13T15:44:06.778Z,49.53
2023-01-13T15:46:37.145Z,44.72
2023-01-13T15:49:35.535Z,45.03
2023-01-13T15:52:22.025Z,43.97
2023-01-13T15:54:52.122Z,52.65
2023-01-13T15:57:23.252Z,54.65
2023-01-13T16:00:01.525Z,50.37
2023-01-13T16:02:32.282Z,48.13
2023-01-13T16:05:02.523Z,47.63
2023-01-13T16:07:37.136Z,46.92
2023-01-13T16:10:14.201Z,52.00
2023-01-13T16:12:40.759Z,47.60
2023-01-13T16:15:13.370Z,50.13
2023-01-13T16:17:51.758Z,43.90
2023-01-13T16:20:29.277Z,54.90
2023-01-13T16:22:58.505Z,48.97
2023-01-13T16:25:41.423Z,39.83
2023-01-13T16:28:26.488Z,53.72
2023-01-13T16:30:57.701Z,56.00
2023-01-13T16:33:33.280Z,55.60
2023-01-13T16:36:17.414Z,51.45
2023-01-13T16:38:48.739Z,49.15
2023-01-13T16:41:25.914Z,50.53
2023-01-13T16:44:01.155Z,51.72
2023-01-13T16:46:30.137Z,47.42
2023-01-13T16:49:01.761Z,49.38
2023-01-13T16:51:29.091Z,51.60
2023-01-13T16:53:55.701Z,53.92
2023-01-13T16:56:40.845Z,53.85
2023-01-13T16:59:12.766Z,53.75
2023-01-13T17:01:42.716Z,50.30
2023-01-13T17:04:20.424Z,63.72
2023-01-13T17:06:50.467Z,57.38
2023-01-13T17:09:22.792Z,61.47
2023-01-13T17:11:55.580Z,52.40
2023-01-13T17:14:24.137Z,41.42
2023-01-13T17:16:53.880Z,50.97
2023-01-13T17:19:22.124Z,57.75
2023-01-13T17:21:58.932Z,57.65
2023-01-13T17:24:26.071Z,51.38
2023-01-13T17:26:52.692Z,38.45
2023-01-13T17:29:21.914Z,61.65
2023-01-13T17:31:52.099Z,64.80
2023-01-13T17:34:30.942Z,61.95
2023-01-13T17:37:06.702Z,61.72
2023-01-13T17:39:51.297Z,53.58
2023-01-13T17:42:18.245Z,54.72
2023-01-13T17:44:44.917Z,42.17
2023-01-13T17:47:11.511Z,51.70
2023-01-13T17:49:45.763Z,63.38
2023-01-13T17:52:12.550Z,70.10
2023-01-13T17:54:49.664Z,60.53
2023-01-13T17:57:27.732Z,65.65
2023-01-13T17:59:59.247Z,55.67
2023-01-13T18:02:33.543Z,58.17
2023-01-13T18:05:05.968Z,63.10
2023-01-13T18:07:42.317Z,65.87
2023-01-13T18:10:14.090Z,58.63
2023-01-13T18:12:51.405Z,62.72
2023-01-13T18:15:20.289Z,60.97
2023-01-13T18:17:51.922Z,57.33
2023-01-13T18:20:20.488Z,61.95
2023-01-13T18:22:47.768Z,55.13
2023-01-13T18:25:23.318Z,53.40
2023-01-13T18:27:49.986Z,53.15
2023-01-13T18:30:27.409Z,68.32
2023-01-13T18:32:56.184Z,61.50
2023-01-13T18:35:32.332Z,56.00
2023-01-13T18:38:08.747Z,57.38
2023-01-13T18:40:44.191Z,57.45
2023-01-13T18:43:19.460Z,61.55
2023-01-13T18:45:58.696Z,58.25
2023-01-13T18:48:38.206Z,62.80
2023-01-13T18:51:17.542Z,62.03
2023-01-13T18:53:54.837Z,50.92
2023-01-13T18:56:35.161Z,58.47
2023-01-13T18:59:15.755Z,49.10
2023-01-13T19:01:55.251Z,60.88
2023-01-13T19:04:32.558Z,58.17
2023-01-13T19:07:13.433Z,51.35
2023-01-13T19:09:51.856Z,59.38
2023-01-13T19:12:36.336Z,57.90
2023-01-13T19:15:13.778Z,62.33
2023-01-13T19:17:51.481Z,51.08
2023-01-13T19:20:25.387Z,61.20
2023-01-13T19:23:07.603Z,56.80
2023-01-13T19:25:36.809Z,56.90
2023-01-13T19:28:04.803Z,55.47
2023-01-13T19:30:31.492Z,55.00
2023-01-13T19:33:21.887Z,62.58
2023-01-13T19:36:07.213Z,58.13
2023-01-13T19:38:41.597Z,58.40
2023-01-13T19:41:20.288Z,59.50
2023-01-13T19:43:59.082Z,53.28
2023-01-13T19:46:31.740Z,61.40
2023-01-13T19:49:05.800Z,62.65
2023-01-13T19:51:33.397Z,58.25
2023-01-13T19:54:01.356Z,71.07
2023-01-13T19:56:36.382Z,57.63
2023-01-13T19:59:04.093Z,63.85
2023-01-13T20:01:40.714Z,63.78
2023-01-13T20:04:17.527Z,60.58
2023-01-13T20:06:45.207Z,61.60
2023-01-13T20:09:20.256Z,54.97
2023-01-13T20:11:50.937Z,63.25
2023-01-13T20:14:20.794Z,66.75
2023-01-13T20:16:55.592Z,64.45
2023-01-13T20:19:30.621Z,62.28
2023-01-13T20:21:58.266Z,57.42
2023-01-13T20:24:30.865Z,61.25
2023-01-13T20:27:01.531Z,61.85
2023-01-13T20:29:38.420Z,70.90
2023-01-13T20:32:07.551Z,59.10
2023-01-13T20:34:40.767Z,53.80
2023-01-13T20:37:12.427Z,60.92
2023-01-13T20:39:46.490Z,63.38
2023-01-13T20:42:18.865Z,53.90
2023-01-13T20:44:59.133Z,57.58
2023-01-13T20:47:31.727Z,57.33
2023-01-13T20:50:09.450Z,52.15
2023-01-13T20:52:45.918Z,55.65
2023-01-13T20:55:21.281Z,50.90
2023-01-13T20:57:48.918Z,54.92
2023-01-13T21:00:28.469Z,57.97
2023-01-13T21:03:02.362Z,58.28
2023-01-13T21:05:36.172Z,51.53
2023-01-13T21:08:11.532Z,55.00
2023-01-13T21:10:38.849Z,63.33
2023-01-13T21:13:18.868Z,57.92
2023-01-13T21:15:48.131Z,56.85
2023-01-13T21:18:21.960Z,61.97
2023-01-13T21:20:57.980Z,53.90
2023-01-13T21:23:33.219Z,59.88
2023-01-13T21:26:13.229Z,62.90
2023-01-13T21:28:47.238Z,58.83
2023-01-13T21:31:23.753Z,61.78
2023-01-13T21:34:04.076Z,55.50
2023-01-13T21:36:36.900Z,61.13
2023-01-13T21:39:11.057Z,52.58
2023-01-13T21:41:39.972Z,61.60
2023-01-13T21:44:26.891Z,64.82
2023-01-13T21:46:58.779Z,57.58
2023-01-13T21:49:30.999Z,59.72
2023-01-13T21:51:58.275Z,48.47
2023-01-13T21:54:34.023Z,55.83
2023-01-13T21:57:10.739Z,53.78
2023-01-13T21:59:47.560Z,62.72
2023-01-13T22:02:25.211Z,58.58
2023-01-13T22:04:59.477Z,60.17
2023-01-13T22:07:28.514Z,60.53
2023-01-13T22:10:01.109Z,59.50
2023-01-13T22:12:28.087Z,60.17
2023-01-13T22:15:02.870Z,59.25
2023-01-13T22:17:35.041Z,60.72
2023-01-13T22:20:01.977Z,59.10
2023-01-13T22:22:28.954Z,55.05
2023-01-13T22:25:03.106Z,60.85
2023-01-13T22:27:40.646Z,57.40
2023-01-13T22:30:12.579Z,59.88
2023-01-13T22:32:53.833Z,60.17
2023-01-13T22:35:29.584Z,50.88
2023-01-13T22:37:58.770Z,54.50
2023-01-13T22:40:28.035Z,52.90
2023-01-13T22:43:04.503Z,54.90
2023-01-13T22:45:31.125Z,54.72
2023-01-13T22:48:07.841Z,55.28
2023-01-13T22:50:44.364Z,54.28
2023-01-13T22:53:15.354Z,54.83
2023-01-13T22:55:43.850Z,68.32
2023-01-13T22:58:19.448Z,50.63
2023-01-13T23:00:49.495Z,62.38
2023-01-13T23:03:23.570Z,58.47
2023-01-13T23:06:04.508Z,55.83
2023-01-13T23:08:45.329Z,59.83
2023-01-13T23:11:14.033Z,60.00
2023-01-13T23:13:41.565Z,62.65
2023-01-13T23:16:26.819Z,65.93
2023-01-13T23:18:56.149Z,61.60
2023-01-13T23:21:41.117Z,64.20
2023-01-13T23:24:19.235Z,67.07
2023-01-13T23:26:54.464Z,69.90
2023-01-13T23:29:34.147Z,62.72
2023-01-13T23:32:11.225Z,61.25
2023-01-13T23:34:39.573Z,63.63
2023-01-13T23:37:06.317Z,63.13
2023-01-13T23:39:40.268Z,70.88
2023-01-13T23:42:21.027Z,67.47
2023-01-13T23:44:58.735Z,72.50
2023-01-13T23:47:29.169Z,77.93
2023-01-13T23:49:58.680Z,67.20
2023-01-13T23:52:36.548Z,58.42
2023-01-13T23:55:20.068Z,61.38
2023-01-13T23:57:48.195Z,61.17
